Time;durP1;ratioP1;P1;durP2;ratioP2;P2;SDS_P1;SDS_P2;PMS_P1;PMS_P2;Temp;Humidity;BMP_temperature;BMP_pressure;BME280_temperature;BME280_humidity;BME280_pressure;Samples;Min_cycle;Max_cycle;Signal;HPM_P1;HPM_P2
2022/09/14 00:00:40;;;;;;;5.28;4.88;;;;;;;15.52;100.00;100767.22;5189884;28;20117;-79
2022/09/14 00:03:11;;;;;;;4.80;4.50;;;;;;;15.57;100.00;100778.09;5187932;28;20053;-78
2022/09/14 00:05:41;;;;;;;5.70;4.63;;;;;;;15.53;100.00;100768.84;5188595;28;20055;-79
2022/09/14 00:08:12;;;;;;;10.02;5.97;;;;;;;15.45;100.00;100758.59;5189620;28;20037;-79
2022/09/14 00:10:45;;;;;;;5.00;4.68;;;;;;;15.58;100.00;100778.91;5189098;28;20022;-79
2022/09/14 00:13:15;;;;;;;5.55;5.05;;;;;;;15.53;100.00;100758.78;5187485;28;20121;-79
2022/09/14 00:15:45;;;;;;;8.18;5.30;;;;;;;15.42;100.00;100743.66;5187920;28;20117;-79
2022/09/14 00:18:16;;;;;;;5.07;4.13;;;;;;;15.52;100.00;100759.88;5187693;28;20068;-79
2022/09/14 00:20:46;;;;;;;5.72;4.50;;;;;;;15.32;100.00;100722.00;5188615;28;20021;-79
2022/09/14 00:23:16;;;;;;;6.80;4.35;;;;;;;15.27;100.00;100722.09;5188387;28;20029;-79
2022/09/14 00:25:47;;;;;;;9.35;4.95;;;;;;;15.44;100.00;100754.25;5187958;28;20033;-81
2022/09/14 00:28:17;;;;;;;6.68;5.32;;;;;;;15.44;100.00;100755.06;5187619;28;20029;-79
2022/09/14 00:30:48;;;;;;;6.13;4.72;;;;;;;15.35;100.00;100745.91;5187103;28;20084;-80
2022/09/14 00:33:18;;;;;;;5.53;5.03;;;;;;;15.39;100.00;100749.69;5188366;28;20021;-81
2022/09/14 00:35:48;;;;;;;3.88;3.67;;;;;;;15.30;100.00;100724.25;5189209;28;20108;-79
2022/09/14 00:38:19;;;;;;;4.72;4.20;;;;;;;15.36;100.00;100725.78;5188775;28;20018;-79
2022/09/14 00:40:59;;;;;;;5.53;4.97;;;;;;;15.32;100.00;100726.63;5188708;28;20156;-79
2022/09/14 00:43:30;;;;;;;9.18;4.80;;;;;;;15.20;100.00;100708.84;5187961;28;20149;-80
2022/09/14 00:46:03;;;;;;;6.55;4.60;;;;;;;15.20;100.00;100724.34;5189105;28;20068;-80
2022/09/14 00:48:34;;;;;;;5.38;4.63;;;;;;;15.20;100.00;100710.75;5189387;28;20030;-80
2022/09/14 00:51:05;;;;;;;6.10;5.47;;;;;;;15.26;100.00;100715.03;5188883;28;20021;-81
2022/09/14 00:53:35;;;;;;;6.75;4.97;;;;;;;15.25;100.00;100705.25;5188227;28;20026;-80
2022/09/14 00:56:06;;;;;;;6.28;4.68;;;;;;;15.13;100.00;100686.63;5187857;28;20026;-80
2022/09/14 00:58:37;;;;;;;4.97;4.43;;;;;;;15.19;100.00;100703.69;5189600;28;20030;-79
2022/09/14 01:01:09;;;;;;;4.68;4.38;;;;;;;15.17;100.00;100695.81;5188477;28;20488;-79
2022/09/14 01:03:39;;;;;;;7.00;5.40;;;;;;;15.20;100.00;100703.41;5186541;28;20052;-80
2022/09/14 01:06:23;;;;;;;3.95;3.65;;;;;;;15.19;100.00;100695.53;5188550;28;20531;-80
2022/09/14 01:08:53;;;;;;;6.78;4.53;;;;;;;15.23;100.00;100701.19;5189108;28;20037;-79
2022/09/14 01:11:47;;;;;;;6.50;5.18;;;;;;;15.22;100.00;100699.59;5188030;28;20026;-80
2022/09/14 01:14:41;;;;;;;8.73;4.95;;;;;;;15.20;100.00;100697.16;5179802;28;20037;-78
2022/09/14 01:17:23;;;;;;;5.82;5.30;;;;;;;15.16;100.00;100690.66;5191485;28;20022;-80
2022/09/14 01:20:15;;;;;;;11.57;5.10;;;;;;;15.16;100.00;100693.38;5189742;28;20029;-80
2022/09/14 01:22:59;;;;;;;5.72;5.32;;;;;;;14.93;100.00;100665.09;5188265;28;20451;-79
2022/09/14 01:26:03;;;;;;;5.88;5.32;;;;;;;15.14;100.00;100703.75;5189076;28;20075;-79
2022/09/14 01:28:40;;;;;;;6.20;4.85;;;;;;;15.09;100.00;100703.78;5189399;28;20053;-78
2022/09/14 01:31:17;;;;;;;5.65;5.22;;;;;;;14.91;100.00;100675.47;5188078;28;20101;-79
2022/09/14 01:33:58;;;;;;;5.70;5.32;;;;;;;14.89;100.00;100679.56;5198384;28;20032;-80
2022/09/14 01:36:31;;;;;;;5.40;4.80;;;;;;;15.04;100.00;100698.41;5188029;28;20026;-79
2022/09/14 01:39:02;;;;;;;4.90;4.50;;;;;;;15.09;100.00;100701.88;5188576;28;20032;-79
2022/09/14 01:41:33;;;;;;;10.07;6.00;;;;;;;15.02;100.00;100695.97;5187403;28;20025;-79
2022/09/14 01:44:17;;;;;;;4.88;4.57;;;;;;;15.07;100.00;100701.38;5184651;28;20028;-79
2022/09/14 01:46:56;;;;;;;6.10;4.63;;;;;;;15.06;100.00;100693.50;5187557;28;20022;-81
2022/09/14 01:49:32;;;;;;;4.40;3.45;;;;;;;14.86;100.00;100662.72;5188692;28;20139;-80
2022/09/14 01:52:14;;;;;;;7.43;4.22;;;;;;;14.95;100.00;100681.13;5189730;28;20032;-80
2022/09/14 01:54:50;;;;;;;5.05;4.65;;;;;;;15.11;100.00;100710.56;5188760;28;20030;-80
2022/09/14 01:57:24;;;;;;;4.93;4.60;;;;;;;15.12;100.00;100700.50;5188831;28;20077;-80
2022/09/14 01:59:59;;;;;;;7.53;4.95;;;;;;;14.97;100.00;100692.53;5188509;28;20029;-80
2022/09/14 02:02:38;;;;;;;6.03;5.50;;;;;;;15.11;100.00;100701.59;5188658;28;20033;-79
2022/09/14 02:05:15;;;;;;;5.70;4.95;;;;;;;15.09;100.00;100695.63;5186704;28;20084;-81
2022/09/14 02:07:46;;;;;;;9.52;6.03;;;;;;;15.00;100.00;100676.44;5187180;28;20024;-80
2022/09/14 02:10:17;;;;;;;7.35;6.75;;;;;;;15.11;100.00;100705.13;5187630;28;20033;-80
2022/09/14 02:12:47;;;;;;;7.60;4.70;;;;;;;15.02;100.00;100685.09;5186275;28;20421;-79
2022/09/14 02:15:18;;;;;;;10.38;5.63;;;;;;;15.06;100.00;100698.94;5186660;28;20029;-80
2022/09/14 02:17:49;;;;;;;7.30;4.97;;;;;;;15.07;100.00;100697.84;5187295;28;20188;-79
2022/09/14 02:20:32;;;;;;;5.50;5.20;;;;;;;15.05;100.00;100691.88;5186386;28;20049;-80
2022/09/14 02:23:02;;;;;;;5.28;4.97;;;;;;;15.01;100.00;100675.34;5187699;28;20067;-80
2022/09/14 02:25:35;;;;;;;8.20;5.47;;;;;;;15.03;100.00;100677.75;5187270;28;20060;-80
2022/09/14 02:28:05;;;;;;;7.32;5.50;;;;;;;15.03;100.00;100675.03;5187663;28;20025;-80
2022/09/14 02:30:48;;;;;;;6.30;5.80;;;;;;;15.02;100.00;100679.66;5187507;28;20022;-82
2022/09/14 02:33:42;;;;;;;9.10;5.75;;;;;;;14.92;100.00;100662.69;5186866;28;20125;-82
2022/09/14 02:36:27;;;;;;;9.25;6.40;;;;;;;14.91;100.00;100661.06;5187750;28;20553;-80
2022/09/14 02:39:13;;;;;;;10.27;6.72;;;;;;;15.04;100.00;100673.94;5186218;28;20030;-79
2022/09/14 02:41:53;;;;;;;7.47;4.30;;;;;;;14.81;100.00;100646.47;5186547;28;20034;-79
2022/09/14 02:44:35;;;;;;;7.13;6.25;;;;;;;15.03;100.00;100675.03;5186102;28;20400;-79
2022/09/14 02:47:25;;;;;;;7.28;6.57;;;;;;;15.01;100.00;100674.53;5186982;28;20026;-80
2022/09/14 02:50:00;;;;;;;11.13;5.55;;;;;;;14.89;100.00;100666.78;5186891;28;20034;-80
2022/09/14 02:52:58;;;;;;;7.53;6.38;;;;;;;14.89;100.00;100661.34;5186631;28;20034;-79
2022/09/14 02:55:34;;;;;;;8.43;6.50;;;;;;;14.90;100.00;100660.25;5189313;28;20064;-79
2022/09/14 02:58:07;;;;;;;6.60;6.15;;;;;;;14.94;100.00;100660.47;5189750;28;20542;-79
2022/09/14 03:00:41;;;;;;;6.95;5.43;;;;;;;14.92;100.00;100658.03;5217214;22;20760;-68
2022/09/14 03:03:15;;;;;;;7.00;5.88;;;;;;;14.85;100.00;100647.50;5203874;28;20057;-68
2022/09/14 03:05:45;;;;;;;6.00;5.45;;;;;;;14.89;100.00;100641.50;5204192;28;20036;-65
2022/09/14 03:08:16;;;;;;;6.93;6.22;;;;;;;14.90;100.00;100648.56;5204277;28;20353;-68
2022/09/14 03:10:46;;;;;;;7.57;6.97;;;;;;;14.70;100.00;100625.94;5186274;28;20552;-68
2022/09/14 03:13:17;;;;;;;11.88;6.70;;;;;;;14.64;100.00;100618.94;5204447;28;20030;-67
2022/09/14 03:15:47;;;;;;;6.05;5.30;;;;;;;14.70;100.00;100625.94;5204053;28;20032;-66
2022/09/14 03:18:18;;;;;;;7.18;6.13;;;;;;;14.59;100.00;100615.47;5204718;28;20018;-66
2022/09/14 03:20:48;;;;;;;5.93;5.53;;;;;;;14.51;100.00;100614.19;5202126;28;20041;-69
2022/09/14 03:23:19;;;;;;;8.15;7.05;;;;;;;14.67;100.00;100642.03;5203797;28;20072;-69
2022/09/14 03:25:49;;;;;;;9.38;6.47;;;;;;;14.43;100.00;100596.63;5185841;28;20033;-68
2022/09/14 03:28:20;;;;;;;7.47;6.93;;;;;;;14.51;100.00;100609.56;5204221;28;20045;-68
2022/09/14 03:30:50;;;;;;;9.88;6.30;;;;;;;14.58;100.00;100625.53;5204167;28;20033;-69
2022/09/14 03:33:21;;;;;;;9.55;6.57;;;;;;;14.61;100.00;100632.28;5203723;28;20029;-69
2022/09/14 03:35:51;;;;;;;6.82;6.22;;;;;;;14.53;100.00;100633.72;5203787;28;20040;-68
2022/09/14 03:38:23;;;;;;;7.25;6.57;;;;;;;14.50;100.00;100628.88;5204093;28;20512;-68
2022/09/14 03:40:53;;;;;;;8.60;7.63;;;;;;;14.45;100.00;100626.19;5204247;28;20056;-66
2022/09/14 03:43:25;;;;;;;8.60;7.18;;;;;;;14.39;100.00;100621.91;5186136;28;20056;-66
2022/09/14 03:45:55;;;;;;;6.72;6.20;;;;;;;14.39;100.00;100619.19;5204194;28;20029;-65
2022/09/14 03:48:27;;;;;;;9.30;8.13;;;;;;;14.40;100.00;100620.81;5203948;28;20029;-66
2022/09/14 03:51:02;;;;;;;10.13;7.75;;;;;;;14.39;100.00;100619.19;5200865;28;20026;-66
2022/09/14 03:53:33;;;;;;;8.43;5.97;;;;;;;14.37;100.00;100624.91;5202938;28;20064;-67
2022/09/14 03:56:16;;;;;;;7.43;6.72;;;;;;;14.31;100.00;100615.19;5203709;28;20369;-66
2022/09/14 03:58:47;;;;;;;7.50;6.90;;;;;;;14.29;100.00;100614.66;5185689;28;20068;-66
2022/09/14 04:01:20;;;;;;;14.40;7.40;;;;;;;14.25;100.00;100610.06;5202029;28;20493;-66
2022/09/14 04:03:51;;;;;;;6.55;5.95;;;;;;;14.27;100.00;100607.88;5202904;28;20029;-68
2022/09/14 04:06:21;;;;;;;6.97;5.85;;;;;;;14.25;100.00;100610.88;5201857;28;20083;-68
2022/09/14 04:08:51;;;;;;;6.97;6.50;;;;;;;14.28;100.00;100609.50;5185200;28;20117;-68
2022/09/14 04:11:24;;;;;;;7.68;5.72;;;;;;;14.25;100.00;100613.59;5203887;28;20129;-65
2022/09/14 04:13:54;;;;;;;7.28;6.55;;;;;;;14.20;100.00;100610.94;5203521;28;20044;-65
2022/09/14 04:16:24;;;;;;;7.35;6.65;;;;;;;14.15;100.00;100609.06;5203810;28;20029;-66
2022/09/14 04:18:55;;;;;;;6.93;5.80;;;;;;;14.07;100.00;100603.47;5204366;28;20060;-67
2022/09/14 04:21:25;;;;;;;9.50;7.45;;;;;;;14.16;100.00;100613.41;5186501;28;20087;-67
2022/09/14 04:23:56;;;;;;;8.57;6.00;;;;;;;14.14;100.00;100612.91;5203301;28;20027;-66
2022/09/14 04:26:28;;;;;;;7.63;6.45;;;;;;;14.02;100.00;100585.31;5185401;28;20040;-67
2022/09/14 04:28:59;;;;;;;9.85;7.32;;;;;;;14.00;100.00;100583.97;5203251;28;20021;-68
2022/09/14 04:31:31;;;;;;;8.20;4.85;;;;;;;14.13;100.00;100603.13;5203312;28;20151;-68
2022/09/14 04:34:01;;;;;;;7.57;7.00;;;;;;;13.91;100.00;100567.47;5202446;28;20733;-68
2022/09/14 04:36:32;;;;;;;10.32;6.85;;;;;;;14.14;100.00;100601.22;5203463;28;20025;-67
2022/09/14 04:39:02;;;;;;;7.40;6.65;;;;;;;14.01;100.00;100574.75;5203587;28;20040;-66
2022/09/14 04:41:33;;;;;;;7.70;7.00;;;;;;;14.10;100.00;100594.75;5185621;28;20124;-66
2022/09/14 04:44:03;;;;;;;10.15;7.20;;;;;;;14.05;100.00;100592.88;5201726;28;20022;-67
2022/09/14 04:46:34;;;;;;;8.48;6.40;;;;;;;13.93;100.00;100597.88;5190834;28;20464;-67
2022/09/14 04:49:05;;;;;;;5.95;5.63;;;;;;;13.89;100.00;100582.44;5187048;28;20026;-67
2022/09/14 04:51:36;;;;;;;10.02;7.03;;;;;;;14.04;100.00;100613.00;5182419;28;20028;-67
2022/09/14 04:54:06;;;;;;;6.40;6.00;;;;;;;14.00;100.00;100608.41;5164590;28;20026;-67
2022/09/14 04:56:37;;;;;;;6.63;6.13;;;;;;;14.01;100.00;100619.00;5170487;28;20481;-67
2022/09/14 04:59:08;;;;;;;7.00;6.18;;;;;;;13.98;100.00;100619.56;5192969;28;20108;-67
2022/09/14 05:01:41;;;;;;;8.95;8.15;;;;;;;13.93;100.00;100622.31;5182493;28;20080;-67
2022/09/14 05:04:11;;;;;;;7.32;6.70;;;;;;;13.84;100.00;100605.03;5181333;28;20108;-67
2022/09/14 05:06:43;;;;;;;10.02;8.45;;;;;;;13.83;100.00;100603.41;5164510;28;20117;-67
2022/09/14 05:09:17;;;;;;;7.43;6.65;;;;;;;13.83;100.00;100611.53;5163594;28;20343;-68
2022/09/14 05:11:49;;;;;;;15.63;9.93;;;;;;;13.77;100.00;100599.09;5181727;28;20029;-69
2022/09/14 05:14:19;;;;;;;8.70;7.80;;;;;;;13.84;100.00;100610.44;5169046;28;20030;-68
2022/09/14 05:16:50;;;;;;;9.07;8.40;;;;;;;13.86;100.00;100605.53;5160545;28;20514;-68
2022/09/14 05:19:20;;;;;;;10.73;9.02;;;;;;;13.85;100.00;100612.06;5161188;28;20454;-68
2022/09/14 05:21:50;;;;;;;9.05;8.43;;;;;;;13.84;100.00;100605.03;5143660;28;20104;-67
2022/09/14 05:24:21;;;;;;;8.80;7.97;;;;;;;13.79;100.00;100605.06;5160667;28;20026;-67
2022/09/14 05:26:52;;;;;;;12.32;9.02;;;;;;;13.78;100.00;100614.28;5161289;28;20025;-67
2022/09/14 05:29:22;;;;;;;9.52;8.38;;;;;;;13.74;100.00;100603.19;5169505;28;20045;-68
2022/09/14 05:31:52;;;;;;;9.05;8.30;;;;;;;13.78;100.00;100600.72;5198988;28;20611;-67
2022/09/14 05:34:23;;;;;;;9.45;8.23;;;;;;;13.76;100.00;100605.63;5197283;28;20482;-68
2022/09/14 05:36:53;;;;;;;8.40;7.70;;;;;;;13.80;100.00;100603.97;5202036;28;20105;-67
2022/09/14 05:39:23;;;;;;;9.88;8.63;;;;;;;13.78;100.00;100590.69;5200886;28;20025;-68
2022/09/14 05:41:54;;;;;;;13.70;10.20;;;;;;;13.80;100.00;100590.41;5198749;28;20045;-67
2022/09/14 05:44:24;;;;;;;14.43;10.63;;;;;;;13.69;100.00;100567.94;5195218;28;20026;-68
2022/09/14 05:46:55;;;;;;;9.63;8.98;;;;;;;13.76;100.00;100589.34;5197691;28;20441;-68
2022/09/14 05:49:25;;;;;;;10.43;9.50;;;;;;;13.68;100.00;100579.09;5197367;28;20036;-68
2022/09/14 05:51:55;;;;;;;11.60;10.57;;;;;;;13.79;100.00;100578.72;5200587;28;20041;-67
2022/09/14 05:54:26;;;;;;;9.23;8.43;;;;;;;13.55;100.00;100539.03;5183377;28;20470;-68
2022/09/14 05:56:56;;;;;;;9.48;8.70;;;;;;;13.82;100.00;100574.63;5183493;28;20044;-68
2022/09/14 05:59:30;;;;;;;10.85;9.32;;;;;;;13.75;100.00;100585.00;5201320;28;20228;-67
2022/09/14 06:02:00;;;;;;;9.88;8.93;;;;;;;13.73;100.00;100570.91;5183570;28;20398;-67
2022/09/14 06:04:31;;;;;;;8.85;8.23;;;;;;;13.71;100.00;100570.38;5182842;28;20021;-67
2022/09/14 06:07:01;;;;;;;10.13;9.25;;;;;;;13.73;100.00;100569.00;5201203;28;20021;-67
2022/09/14 06:09:32;;;;;;;8.88;8.18;;;;;;;13.71;100.00;100562.25;5201098;28;20101;-66
2022/09/14 06:12:02;;;;;;;9.75;8.23;;;;;;;13.63;100.00;100549.28;5201689;28;20018;-66
2022/09/14 06:14:33;;;;;;;10.55;8.27;;;;;;;13.55;100.00;100536.34;5182959;28;20022;-67
2022/09/14 06:17:04;;;;;;;8.45;7.60;;;;;;;13.68;100.00;100562.81;5183400;28;20025;-67
2022/09/14 06:19:34;;;;;;;10.30;8.45;;;;;;;13.64;100.00;100565.25;5188709;28;20030;-67
2022/09/14 06:22:05;;;;;;;10.05;9.32;;;;;;;13.64;100.00;100569.88;5196263;28;20029;-67
2022/09/14 06:24:36;;;;;;;9.77;7.20;;;;;;;13.55;100.00;100558.84;5200202;28;20025;-66
2022/09/14 06:27:09;;;;;;;9.55;8.65;;;;;;;13.54;100.00;100556.41;5200789;28;20429;-66
2022/09/14 06:29:40;;;;;;;8.23;7.47;;;;;;;13.61;100.00;100563.13;5200266;28;20357;-66
2022/09/14 06:32:10;;;;;;;8.52;7.90;;;;;;;13.46;100.00;100542.34;5200327;28;20109;-66
2022/09/14 06:34:40;;;;;;;11.73;8.57;;;;;;;13.59;100.00;100559.88;5181896;28;20143;-66
2022/09/14 06:37:11;;;;;;;11.77;10.05;;;;;;;13.49;100.00;100549.94;5200761;28;20029;-66
2022/09/14 06:39:42;;;;;;;8.10;6.97;;;;;;;13.53;100.00;100563.75;5182981;28;20053;-66
2022/09/14 06:42:13;;;;;;;9.23;8.32;;;;;;;13.47;100.00;100554.81;5198684;28;20470;-66
2022/09/14 06:44:43;;;;;;;9.13;8.38;;;;;;;13.48;100.00;100551.03;5184428;28;20049;-65
2022/09/14 06:47:14;;;;;;;10.02;8.20;;;;;;;13.45;100.00;100548.88;5200321;28;20017;-66
2022/09/14 06:49:44;;;;;;;8.77;7.90;;;;;;;13.55;100.00;100544.47;5200341;28;20381;-66
2022/09/14 06:52:14;;;;;;;9.88;7.30;;;;;;;13.47;100.00;100537.75;5200382;28;20029;-66
2022/09/14 06:54:45;;;;;;;8.43;7.63;;;;;;;13.60;100.00;100558.78;5200343;28;20034;-66
2022/09/14 06:57:16;;;;;;;10.05;9.27;;;;;;;13.63;100.00;100554.69;5200628;28;20037;-66
2022/09/14 06:59:46;;;;;;;14.43;7.85;;;;;;;13.75;100.00;100563.28;5182216;28;20489;-66
2022/09/14 07:02:16;;;;;;;6.70;6.20;;;;;;;13.77;100.00;100555.69;5200510;28;20109;-66
2022/09/14 07:04:47;;;;;;;8.55;7.85;;;;;;;13.72;100.00;100558.44;5197852;28;20529;-67
2022/09/14 07:07:18;;;;;;;8.07;7.32;;;;;;;13.69;100.00;100550.84;5199883;28;20029;-66
2022/09/14 07:09:48;;;;;;;19.45;8.50;;;;;;;13.71;100.00;100556.81;5200205;28;20059;-66
2022/09/14 07:12:18;;;;;;;10.30;7.43;;;;;;;13.70;100.00;100544.34;5200012;28;20104;-66
2022/09/14 07:14:49;;;;;;;6.75;6.28;;;;;;;13.73;100.00;100562.75;5200374;28;20025;-67
2022/09/14 07:17:19;;;;;;;6.85;5.85;;;;;;;13.66;100.00;100551.41;5200304;28;20025;-67
2022/09/14 07:19:50;;;;;;;8.00;7.18;;;;;;;13.80;100.00;100563.25;5200387;28;20057;-66
2022/09/14 07:22:20;;;;;;;9.40;8.63;;;;;;;13.81;100.00;100567.59;5200670;28;20072;-66
2022/09/14 07:24:50;;;;;;;9.30;7.68;;;;;;;13.81;100.00;100567.59;5199775;28;20041;-66
2022/09/14 07:27:21;;;;;;;9.27;8.35;;;;;;;13.77;100.00;100558.38;5200618;28;20022;-66
2022/09/14 07:29:51;;;;;;;9.85;8.88;;;;;;;13.82;100.00;100563.78;5197752;28;20071;-66
2022/09/14 07:32:22;;;;;;;9.05;8.45;;;;;;;13.87;100.00;100566.44;5199485;28;20426;-66
2022/09/14 07:34:52;;;;;;;9.38;8.55;;;;;;;13.88;100.00;100569.94;5199672;28;20113;-66
2022/09/14 07:37:22;;;;;;;8.25;7.45;;;;;;;13.84;100.00;100561.59;5200165;28;20021;-66
2022/09/14 07:39:53;;;;;;;9.35;8.77;;;;;;;13.90;100.00;100565.88;5200915;28;20041;-66
2022/09/14 07:42:23;;;;;;;13.27;7.93;;;;;;;13.93;100.00;100562.59;5204168;28;20036;-66
2022/09/14 07:44:53;;;;;;;9.77;8.25;;;;;;;13.89;100.00;100563.44;5203547;28;20032;-66
2022/09/14 07:47:24;;;;;;;7.68;6.95;;;;;;;13.92;100.00;100562.88;5203680;28;20045;-66
2022/09/14 07:49:54;;;;;;;9.40;8.60;;;;;;;13.92;100.00;100569.09;5203703;28;20068;-66
2022/09/14 07:52:25;;;;;;;9.35;8.55;;;;;;;13.92;100.00;100566.38;5203849;28;20040;-66
2022/09/14 07:54:55;;;;;;;11.20;10.15;;;;;;;13.82;100.00;100540.16;5203471;28;20022;-65
2022/09/14 07:57:26;;;;;;;14.00;10.13;;;;;;;14.02;100.00;100562.78;5204251;28;20108;-65
2022/09/14 07:59:57;;;;;;;12.73;8.25;;;;;;;14.04;100.00;100561.41;5203477;28;20022;-65
2022/09/14 08:02:28;;;;;;;11.13;9.88;;;;;;;14.03;100.00;100562.50;5203352;28;20132;-65
2022/09/14 08:04:58;;;;;;;10.27;9.45;;;;;;;14.09;100.00;100557.84;5203324;28;20109;-65
2022/09/14 08:07:29;;;;;;;11.40;10.35;;;;;;;14.02;100.00;100569.03;5203784;28;20549;-64
2022/09/14 08:10:01;;;;;;;9.38;8.57;;;;;;;14.03;100.00;100557.06;5203768;28;20025;-65
2022/09/14 08:12:31;;;;;;;10.10;9.35;;;;;;;14.08;100.00;100562.44;5202227;28;20084;-64
2022/09/14 08:15:01;;;;;;;9.65;8.95;;;;;;;14.07;100.00;100560.84;5203026;28;20013;-65
2022/09/14 08:17:32;;;;;;;10.27;9.27;;;;;;;14.08;100.00;100567.88;5203546;28;20151;-65
2022/09/14 08:20:03;;;;;;;12.88;7.75;;;;;;;14.06;100.00;100572.78;5203387;28;20025;-65
2022/09/14 08:22:34;;;;;;;13.38;9.60;;;;;;;14.00;100.00;100570.41;5203168;28;20029;-64
2022/09/14 08:25:05;;;;;;;9.57;8.88;;;;;;;14.02;100.00;100571.75;5184474;28;20028;-65
2022/09/14 08:27:35;;;;;;;10.73;8.18;;;;;;;14.00;100.00;100564.97;5203308;28;20219;-65
2022/09/14 08:30:06;;;;;;;10.05;9.13;;;;;;;14.06;100.00;100580.13;5202871;28;20401;-65
2022/09/14 08:32:36;;;;;;;9.63;9.05;;;;;;;14.10;100.00;100570.31;5202903;28;20060;-65
2022/09/14 08:35:07;;;;;;;11.15;10.35;;;;;;;14.05;100.00;100556.78;5202698;28;20462;-64
2022/09/14 08:37:38;;;;;;;12.65;9.70;;;;;;;14.11;100.00;100570.03;5185093;28;20590;-65
2022/09/14 08:40:10;;;;;;;10.25;9.55;;;;;;;14.11;100.00;100577.38;5202557;28;20422;-64
2022/09/14 08:42:41;;;;;;;11.63;10.43;;;;;;;14.05;100.00;100562.22;5202806;28;20033;-64
2022/09/14 08:45:15;;;;;;;11.73;10.73;;;;;;;14.11;100.00;100550.22;5202266;28;20103;-64
2022/09/14 08:47:46;;;;;;;10.25;9.43;;;;;;;14.11;100.00;100551.03;5202811;28;20147;-64
2022/09/14 08:50:20;;;;;;;13.32;9.88;;;;;;;14.16;100.00;100548.22;5202725;28;20454;-64
2022/09/14 08:52:52;;;;;;;12.98;11.98;;;;;;;14.17;100.00;100551.75;5184806;28;20029;-65
2022/09/14 08:55:32;;;;;;;11.35;10.27;;;;;;;14.16;100.00;100559.09;5184575;28;20025;-65
2022/09/14 08:58:24;;;;;;;11.52;10.60;;;;;;;14.19;100.00;100558.53;5202595;28;20358;-65
2022/09/14 09:01:24;;;;;;;11.57;10.80;;;;;;;14.30;100.00;100539.41;5216104;22;20051;-60
2022/09/14 09:04:20;;;;;;;12.43;11.60;;;;;;;14.33;100.00;100550.50;5198787;28;20030;-62
2022/09/14 09:07:00;;;;;;;11.23;10.43;;;;;;;14.31;100.00;100541.03;5205507;28;20112;-64
2022/09/14 09:09:39;;;;;;;12.27;11.40;;;;;;;14.42;100.00;100545.28;5191374;28;20030;-63
2022/09/14 09:12:28;;;;;;;13.63;12.38;;;;;;;14.42;100.00;100534.44;5184663;28;20030;-62
2022/09/14 09:15:01;;;;;;;11.48;10.65;;;;;;;14.32;100.00;100529.06;5184190;28;20109;-63
2022/09/14 09:17:41;;;;;;;10.80;10.05;;;;;;;14.33;100.00;100538.84;5184728;28;20633;-62
2022/09/14 09:20:19;;;;;;;12.80;12.00;;;;;;;14.25;100.00;100542.19;5184235;28;20426;-64
2022/09/14 09:23:15;;;;;;;12.57;11.77;;;;;;;14.31;100.00;100551.91;5184463;28;20021;-61
2022/09/14 09:26:11;;;;;;;12.55;11.55;;;;;;;14.29;100.00;100533.16;5173672;28;20518;-64
2022/09/14 09:28:49;;;;;;;12.68;11.68;;;;;;;14.25;100.00;100548.41;5184635;28;20014;-63
2022/09/14 09:31:32;;;;;;;11.35;10.45;;;;;;;14.35;100.00;100556.47;5183933;28;20112;-62
2022/09/14 09:34:03;;;;;;;12.25;11.40;;;;;;;14.40;100.00;100553.69;5183625;28;20042;-63
2022/09/14 09:36:37;;;;;;;11.68;10.77;;;;;;;14.39;100.00;100562.13;5184048;28;20034;-66
2022/09/14 09:39:08;;;;;;;12.20;11.40;;;;;;;14.32;100.00;100558.94;5184060;28;20022;-62
2022/09/14 09:41:55;;;;;;;12.18;11.27;;;;;;;14.34;100.00;100559.47;5183811;28;20179;-62
2022/09/14 09:44:26;;;;;;;11.45;10.60;;;;;;;14.34;100.00;100570.34;5183266;28;20117;-62
2022/09/14 09:47:01;;;;;;;12.52;11.73;;;;;;;14.35;100.00;100561.09;5183976;28;20033;-64
2022/09/14 09:49:35;;;;;;;14.02;12.93;;;;;;;14.34;100.00;100563.00;5183403;28;20072;-62
2022/09/14 09:52:13;;;;;;;12.68;11.55;;;;;;;14.40;100.00;100558.31;5183540;28;20026;-60
2022/09/14 09:54:53;;;;;;;11.30;10.55;;;;;;;14.41;100.00;100573.56;5183127;28;20033;-62
2022/09/14 09:57:36;;;;;;;12.02;11.13;;;;;;;14.33;100.00;100583.09;5183739;28;20088;-63
2022/09/14 10:00:24;;;;;;;10.85;10.00;;;;;;;14.28;100.00;100587.78;5183279;28;20034;-62
2022/09/14 10:02:55;;;;;;;10.65;9.95;;;;;;;14.27;100.00;100597.84;5181596;28;20037;-62
2022/09/14 10:05:27;;;;;;;11.55;10.57;;;;;;;14.20;100.00;100590.00;5182990;28;20029;-63
2022/09/14 10:08:03;;;;;;;10.40;9.70;;;;;;;14.18;100.00;100591.41;5183483;28;20474;-63
2022/09/14 10:10:33;;;;;;;11.15;10.38;;;;;;;14.16;100.00;100594.41;5182087;28;20041;-63
2022/09/14 10:13:17;;;;;;;8.25;7.65;;;;;;;14.09;100.00;100595.84;5183902;28;20026;-62
2022/09/14 10:15:48;;;;;;;8.57;8.18;;;;;;;14.16;100.00;100588.97;5183842;28;20037;-61
2022/09/14 10:18:19;;;;;;;10.55;9.65;;;;;;;14.18;100.00;100569.66;5183462;28;20153;-62
2022/09/14 10:20:52;;;;;;;10.27;9.38;;;;;;;14.10;100.00;100560.25;5183370;28;20492;-61
2022/09/14 10:23:26;;;;;;;9.65;8.85;;;;;;;14.03;100.00;100578.78;5183974;28;20088;-63
2022/09/14 10:26:12;;;;;;;7.10;6.65;;;;;;;13.96;100.00;100594.59;5183795;28;20071;-62
2022/09/14 10:28:47;;;;;;;7.25;6.85;;;;;;;13.85;100.00;100582.22;5183987;28;20091;-67
2022/09/14 10:31:30;;;;;;;8.95;8.18;;;;;;;13.81;100.00;100592.81;5183707;28;20029;-63
2022/09/14 10:34:00;;;;;;;6.80;6.38;;;;;;;13.85;100.00;100584.94;5182938;28;20064;-64
2022/09/14 10:36:36;;;;;;;6.50;5.95;;;;;;;13.79;100.00;100588.78;5183278;28;20045;-64
2022/09/14 10:39:21;;;;;;;5.68;5.38;;;;;;;13.78;100.00;100596.09;5183197;28;20052;-67
2022/09/14 10:42:13;;;;;;;4.35;4.05;;;;;;;13.63;100.00;100592.69;5183093;28;20069;-64
2022/09/14 10:44:58;;;;;;;4.50;4.30;;;;;;;13.37;100.00;100565.75;5182909;28;20037;-65
2022/09/14 10:47:39;;;;;;;3.58;3.38;;;;;;;13.43;100.00;100570.03;5182994;28;20026;-62
2022/09/14 10:50:12;;;;;;;3.85;3.65;;;;;;;13.26;100.00;100577.75;5181642;28;20030;-66
2022/09/14 10:53:03;;;;;;;4.72;3.30;;;;;;;13.27;100.00;100584.00;5182734;28;20029;-64
2022/09/14 10:55:48;;;;;;;3.42;3.22;;;;;;;13.25;100.00;100562.59;5182679;28;20486;-65
2022/09/14 10:58:27;;;;;;;4.18;3.92;;;;;;;13.21;100.00;100553.38;5180870;28;20022;-63
2022/09/14 11:01:34;;;;;;;6.55;4.22;;;;;;;13.22;100.00;100568.56;5182693;28;20069;-61
2022/09/14 11:04:44;;;;;;;4.57;4.18;;;;;;;13.40;100.00;100581.44;5180505;28;20076;-64
2022/09/14 11:07:35;;;;;;;3.42;3.25;;;;;;;13.41;100.00;100568.69;5182756;28;20172;-64
2022/09/14 11:10:16;;;;;;;3.35;3.25;;;;;;;13.42;100.00;100562.19;5182777;28;20036;-63
2022/09/14 11:13:06;;;;;;;5.90;2.80;;;;;;;13.32;100.00;100567.66;5183134;28;20032;-62
2022/09/14 11:15:59;;;;;;;5.05;3.75;;;;;;;13.29;100.00;100560.09;5185996;28;20056;-66
2022/09/14 11:18:37;;;;;;;3.53;3.33;;;;;;;13.38;100.00;100575.50;5186388;28;20532;-67
2022/09/14 11:21:42;;;;;;;4.75;3.28;;;;;;;13.46;100.00;100571.38;5186864;28;20048;-65
2022/09/14 11:24:19;;;;;;;5.30;4.75;;;;;;;13.70;100.00;100566.03;5185322;28;20168;-63
2022/09/14 11:26:49;;;;;;;4.22;4.03;;;;;;;13.77;100.00;100559.19;5184720;28;20111;-66
2022/09/14 11:29:27;;;;;;;3.65;3.45;;;;;;;13.76;100.00;100543.19;5178904;28;20065;-65
2022/09/14 11:32:04;;;;;;;8.60;5.68;;;;;;;13.91;100.00;100559.34;5182993;28;20021;-65
2022/09/14 11:34:44;;;;;;;3.95;3.75;;;;;;;13.82;100.00;100550.22;5178562;28;20148;-64
2022/09/14 11:37:19;;;;;;;2.83;2.72;;;;;;;13.84;100.00;100567.03;5199824;28;20465;-63
2022/09/14 11:40:15;;;;;;;2.97;2.88;;;;;;;13.88;100.00;100559.91;5199150;28;20044;-65
2022/09/14 11:42:58;;;;;;;3.33;3.22;;;;;;;13.94;100.00;100556.06;5193263;28;20033;-65
2022/09/14 11:45:35;;;;;;;4.20;3.90;;;;;;;14.06;100.00;100556.50;5204653;28;20028;-66
2022/09/14 11:48:08;;;;;;;6.90;4.28;;;;;;;13.99;100.00;100541.63;5205826;28;20536;-65